Weather at Chanthaburi Airstrip

Public forecast

Using degrees Celsius for public forecast. Weather courtesy of forecast.io.

Closest aviation weather report (METAR) to Chanthaburi Airstrip

Closest report is Trat Airport, 27.5 nm (50.9 km) SE.

2024/07/24 03:00 (retrieved 57 minutes ago)

VTBO 240300Z 21009KT 9000 SCT018 BKN100 29/27 Q1007

Closest aviation forecast (TAF) to Chanthaburi Airstrip

Forecast is more than 12 hours old.

Closest forecast is Car Nicobar Air Force Base, 581.5 nm (1,077.0 km) WSW.

2024/07/23 12:00 (retrieved 16 hours ago)

TAF VOCX 230930Z 2312/2324 22010KT 6000 SCT015 BKN090 TEMPO 1215/1217 24010G20KT 5000 RA SCT015 FEW025TCU BKN090